createdAt,value
2022-10-21T00:00:47.461Z,9.54
2022-10-21T00:01:47.454Z,9.54
2022-10-21T00:02:47.440Z,9.54
2022-10-21T00:03:47.426Z,9.56
2022-10-21T00:04:47.414Z,9.61
2022-10-21T00:05:47.410Z,9.62
2022-10-21T00:06:47.394Z,9.59
2022-10-21T00:07:47.383Z,9.53
2022-10-21T00:08:47.407Z,9.51
2022-10-21T00:09:47.389Z,9.53
2022-10-21T00:10:47.347Z,9.59
2022-10-21T00:11:47.346Z,9.61
2022-10-21T00:12:47.323Z,9.61
2022-10-21T00:13:47.314Z,9.61
2022-10-21T00:14:47.302Z,9.56
2022-10-21T00:15:47.291Z,9.53
2022-10-21T00:16:47.289Z,9.53
2022-10-21T00:17:47.268Z,9.51
2022-10-21T00:18:47.256Z,9.53
2022-10-21T00:19:47.281Z,9.54
2022-10-21T00:20:47.241Z,9.56
2022-10-21T00:21:47.223Z,9.56
2022-10-21T00:22:47.213Z,9.58
2022-10-21T00:23:47.201Z,9.56
2022-10-21T00:24:47.190Z,9.54
2022-10-21T00:25:47.207Z,9.51
2022-10-21T00:26:47.168Z,9.53
2022-10-21T00:27:47.156Z,9.54
2022-10-21T00:28:47.149Z,9.53
2022-10-21T00:29:47.137Z,9.53
2022-10-21T00:30:47.121Z,9.54
2022-10-21T00:31:47.113Z,9.56
2022-10-21T00:32:47.109Z,9.53
2022-10-21T00:33:47.089Z,9.51
2022-10-21T00:34:47.088Z,9.53
2022-10-21T00:35:47.068Z,9.51
2022-10-21T00:36:47.056Z,9.49
2022-10-21T00:37:47.050Z,9.47
2022-10-21T00:38:47.045Z,9.47
2022-10-21T00:39:47.022Z,9.50
2022-10-21T00:40:47.015Z,9.49
2022-10-21T00:41:47.022Z,9.50
2022-10-21T00:42:47.231Z,9.51
2022-10-21T00:43:46.977Z,9.54
2022-10-21T00:44:46.971Z,9.58
2022-10-21T00:45:46.958Z,9.58
2022-10-21T00:46:46.948Z,9.59
2022-10-21T00:48:46.923Z,9.53
2022-10-21T00:49:46.912Z,9.53
2022-10-21T00:50:46.903Z,9.51
2022-10-21T00:51:46.886Z,9.53
2022-10-21T00:52:46.878Z,9.54
2022-10-21T00:53:46.868Z,9.61
2022-10-21T00:54:46.852Z,9.59
2022-10-21T00:55:46.848Z,9.59
2022-10-21T00:56:46.859Z,9.58
2022-10-21T00:57:46.845Z,9.58
2022-10-21T00:58:46.811Z,9.54
2022-10-21T00:59:46.797Z,9.53
2022-10-21T01:00:46.863Z,9.53
2022-10-21T01:01:46.773Z,9.54
2022-10-21T01:02:46.766Z,9.54
2022-10-21T01:03:46.759Z,9.54
2022-10-21T01:04:46.742Z,9.54
2022-10-21T01:05:46.791Z,9.54
2022-10-21T01:06:46.718Z,9.56
2022-10-21T01:07:47.058Z,9.56
2022-10-21T01:08:46.783Z,9.59
2022-10-21T01:09:46.685Z,9.62
2022-10-21T01:10:46.675Z,9.65
2022-10-21T01:11:46.666Z,9.68
2022-10-21T01:12:46.653Z,9.69
2022-10-21T01:13:46.663Z,9.72
2022-10-21T01:14:46.629Z,9.71
2022-10-21T01:15:46.618Z,9.68
2022-10-21T01:16:48.223Z,9.66
2022-10-21T01:17:47.123Z,9.66
2022-10-21T01:18:46.586Z,9.66
2022-10-21T01:19:46.572Z,9.64
2022-10-21T01:20:46.563Z,9.65
2022-10-21T01:21:46.551Z,9.65
2022-10-21T01:22:46.544Z,9.65
2022-10-21T01:23:46.531Z,9.65
2022-10-21T01:24:46.516Z,9.65
2022-10-21T01:25:46.511Z,9.64
2022-10-21T01:26:46.494Z,9.68
2022-10-21T01:27:46.494Z,9.68
2022-10-21T01:28:46.475Z,9.69
2022-10-21T01:29:46.485Z,9.71
2022-10-21T01:30:46.454Z,9.69
2022-10-21T01:31:46.437Z,9.68
2022-10-21T01:32:46.433Z,9.68
2022-10-21T01:33:46.417Z,9.65
2022-10-21T01:34:46.404Z,9.65
2022-10-21T01:35:46.395Z,9.65
2022-10-21T01:36:46.385Z,9.66
2022-10-21T01:37:46.431Z,9.66
2022-10-21T01:38:46.358Z,9.65
2022-10-21T01:39:46.348Z,9.62
2022-10-21T01:40:46.340Z,9.62
2022-10-21T01:41:46.326Z,9.66
2022-10-21T01:42:46.318Z,9.64
2022-10-21T01:43:46.305Z,9.62
2022-10-21T01:44:46.291Z,9.64
2022-10-21T01:45:46.309Z,9.56
2022-10-21T01:46:46.269Z,9.58
2022-10-21T01:47:46.260Z,9.58
2022-10-21T01:48:46.248Z,9.59
2022-10-21T01:49:46.238Z,9.61
2022-10-21T01:50:46.230Z,9.61
2022-10-21T01:51:46.218Z,9.61
2022-10-21T01:52:46.202Z,9.59
2022-10-21T01:53:46.192Z,9.59
2022-10-21T01:54:46.181Z,9.58
2022-10-21T01:55:46.166Z,9.58
2022-10-21T01:56:46.161Z,9.59
2022-10-21T01:57:46.146Z,9.59
2022-10-21T01:58:46.135Z,9.61
2022-10-21T01:59:46.124Z,9.62
2022-10-21T02:00:46.158Z,9.62
2022-10-21T02:01:46.124Z,9.62
2022-10-21T02:02:46.090Z,9.62
2022-10-21T02:03:46.076Z,9.62
2022-10-21T02:04:46.069Z,9.62
2022-10-21T02:05:46.053Z,9.65
2022-10-21T02:06:46.044Z,9.65
2022-10-21T02:07:46.033Z,9.65
2022-10-21T02:08:46.102Z,9.62
2022-10-21T02:09:46.013Z,9.62
2022-10-21T02:10:45.997Z,9.64
2022-10-21T02:11:45.995Z,9.64
2022-10-21T02:12:45.980Z,9.62
2022-10-21T02:13:45.964Z,9.65
2022-10-21T02:14:45.960Z,9.66
2022-10-21T02:15:45.941Z,9.66
2022-10-21T02:16:45.933Z,9.68
2022-10-21T02:17:45.944Z,9.71
2022-10-21T02:18:45.911Z,9.71
2022-10-21T02:19:45.900Z,9.74
2022-10-21T02:20:45.890Z,9.76
2022-10-21T02:21:45.873Z,9.77
2022-10-21T02:22:45.863Z,9.77
2022-10-21T02:23:45.850Z,9.76
2022-10-21T02:24:45.843Z,9.80
2022-10-21T02:25:45.829Z,9.80
2022-10-21T02:26:45.816Z,9.77
2022-10-21T02:27:45.810Z,9.74
2022-10-21T02:28:45.796Z,9.72
2022-10-21T02:29:45.786Z,9.72
2022-10-21T02:30:45.773Z,9.74
2022-10-21T02:31:45.767Z,9.77
2022-10-21T02:32:45.758Z,9.76
2022-10-21T02:33:45.764Z,9.72
2022-10-21T02:34:45.728Z,9.72
2022-10-21T02:35:45.720Z,9.76
2022-10-21T02:36:45.706Z,9.77
2022-10-21T02:37:45.696Z,9.83
2022-10-21T02:38:45.694Z,9.83
2022-10-21T02:39:45.671Z,9.83
2022-10-21T02:40:45.667Z,9.77
2022-10-21T02:41:45.648Z,9.80
2022-10-21T02:42:45.637Z,9.81
2022-10-21T02:43:45.626Z,9.83
2022-10-21T02:44:45.618Z,9.83
2022-10-21T02:45:45.607Z,9.80
2022-10-21T02:46:45.593Z,9.84
2022-10-21T02:47:45.579Z,9.84
2022-10-21T02:48:45.569Z,9.83
2022-10-21T02:49:45.586Z,9.85
2022-10-21T02:50:45.553Z,9.84
2022-10-21T02:51:45.548Z,9.83
2022-10-21T02:52:45.523Z,9.85
2022-10-21T02:53:45.514Z,9.85
2022-10-21T02:54:45.509Z,9.87
2022-10-21T02:55:45.491Z,9.88
2022-10-21T02:56:45.484Z,9.87
2022-10-21T02:57:45.469Z,9.87
2022-10-21T02:58:45.459Z,9.88
2022-10-21T02:59:45.446Z,9.91
2022-10-21T03:00:45.517Z,9.91
2022-10-21T03:01:45.425Z,9.93
2022-10-21T03:02:45.419Z,9.94
2022-10-21T03:03:45.402Z,9.96
2022-10-21T03:04:45.393Z,9.98
2022-10-21T03:05:45.403Z,9.96
2022-10-21T03:06:45.368Z,9.94
2022-10-21T03:07:45.355Z,9.96
2022-10-21T03:08:45.406Z,9.99
2022-10-21T03:09:45.333Z,10.01
2022-10-21T03:10:48.034Z,10.02
2022-10-21T03:11:45.315Z,10.02
2022-10-21T03:12:45.303Z,10.01
2022-10-21T03:13:45.294Z,9.99
2022-10-21T03:14:45.278Z,9.99
2022-10-21T03:15:45.269Z,9.94
2022-10-21T03:16:45.258Z,9.93
2022-10-21T03:17:45.244Z,9.90
2022-10-21T03:18:45.233Z,9.94
2022-10-21T03:19:45.222Z,9.96
2022-10-21T03:20:45.209Z,9.96
2022-10-21T03:21:45.223Z,9.98
2022-10-21T03:22:45.187Z,9.99
2022-10-21T03:23:45.177Z,9.98
2022-10-21T03:24:45.164Z,9.98
2022-10-21T03:25:45.154Z,9.96
2022-10-21T03:26:45.143Z,9.96
2022-10-21T03:27:45.133Z,9.94
2022-10-21T03:28:45.119Z,9.98
2022-10-21T03:29:45.112Z,9.98
2022-10-21T03:30:45.103Z,9.98
2022-10-21T03:31:45.086Z,9.99
2022-10-21T03:32:45.074Z,10.01
2022-10-21T03:33:45.063Z,9.99
2022-10-21T03:34:45.055Z,10.01
2022-10-21T03:35:45.045Z,10.01
2022-10-21T03:36:45.047Z,10.01
2022-10-21T03:37:45.099Z,10.02
2022-10-21T03:38:45.024Z,10.01
2022-10-21T03:39:45.015Z,10.01
2022-10-21T03:40:44.987Z,10.01
2022-10-21T03:41:44.975Z,9.98
2022-10-21T03:42:44.971Z,9.98
2022-10-21T03:43:44.955Z,9.99
2022-10-21T03:44:44.941Z,10.01
2022-10-21T03:45:44.933Z,10.05
2022-10-21T03:46:44.918Z,10.08
2022-10-21T03:47:44.921Z,10.06
2022-10-21T03:48:44.895Z,10.05
2022-10-21T03:49:44.894Z,10.05
2022-10-21T03:50:44.875Z,10.05
2022-10-21T03:51:44.861Z,10.02
2022-10-21T03:52:44.856Z,10.02
2022-10-21T03:53:44.861Z,10.02
2022-10-21T03:54:44.832Z,10.03
2022-10-21T03:55:44.816Z,10.05
2022-10-21T03:56:44.805Z,10.06
2022-10-21T03:57:44.796Z,10.06
2022-10-21T03:58:44.784Z,10.08
2022-10-21T03:59:44.772Z,10.09
2022-10-21T04:00:44.766Z,10.09
2022-10-21T04:01:44.862Z,10.10
2022-10-21T04:02:44.745Z,10.16
2022-10-21T04:03:44.726Z,10.14
2022-10-21T04:04:44.722Z,10.16
2022-10-21T04:05:44.704Z,10.14
2022-10-21T04:06:44.696Z,10.12
2022-10-21T04:07:48.143Z,10.08
2022-10-21T04:08:44.736Z,10.06
2022-10-21T04:09:44.682Z,10.05
2022-10-21T04:10:44.727Z,10.03
2022-10-21T04:11:44.640Z,10.05
2022-10-21T04:12:44.626Z,10.05
2022-10-21T04:13:44.615Z,10.05
2022-10-21T04:14:44.603Z,10.06
2022-10-21T04:15:44.591Z,10.05
2022-10-21T04:16:46.133Z,10.06
2022-10-21T04:17:44.572Z,10.09
2022-10-21T04:18:44.563Z,10.10
2022-10-21T04:19:44.547Z,10.14
2022-10-21T04:20:44.542Z,10.17
2022-10-21T04:21:44.526Z,10.17
2022-10-21T04:22:44.521Z,10.18
2022-10-21T04:23:44.500Z,10.18
2022-10-21T04:24:44.491Z,10.20
2022-10-21T04:25:44.507Z,10.21
2022-10-21T04:26:44.468Z,10.21
2022-10-21T04:27:44.465Z,10.23
2022-10-21T04:28:44.447Z,10.24
2022-10-21T04:29:44.434Z,10.24
2022-10-21T04:30:44.427Z,10.21
2022-10-21T04:31:44.458Z,10.23
2022-10-21T04:32:44.404Z,10.21
2022-10-21T04:33:44.392Z,10.26
2022-10-21T04:34:44.385Z,10.24
2022-10-21T04:35:44.376Z,10.24
2022-10-21T04:36:44.357Z,10.24
2022-10-21T04:37:44.352Z,10.20
2022-10-21T04:38:44.332Z,10.17
2022-10-21T04:39:44.323Z,10.14
2022-10-21T04:40:44.314Z,10.12
2022-10-21T04:41:44.342Z,10.12
2022-10-21T04:42:44.297Z,10.10
2022-10-21T04:43:44.278Z,10.14
2022-10-21T04:44:44.266Z,10.16
2022-10-21T04:45:44.255Z,10.12
2022-10-21T04:46:44.245Z,10.10
2022-10-21T04:47:44.238Z,10.09
2022-10-21T04:48:44.225Z,10.12
2022-10-21T04:49:44.219Z,10.09
2022-10-21T04:50:44.198Z,10.09
2022-10-21T04:51:44.193Z,10.08
2022-10-21T04:52:44.186Z,10.09
2022-10-21T04:53:44.165Z,10.09
2022-10-21T04:54:44.163Z,10.05
2022-10-21T04:55:44.142Z,10.03
2022-10-21T04:56:44.131Z,10.02
2022-10-21T04:57:44.141Z,10.03
2022-10-21T04:58:44.108Z,10.03
2022-10-21T04:59:44.099Z,10.05
2022-10-21T05:00:44.130Z,10.05
2022-10-21T05:01:44.075Z,10.05
2022-10-21T05:02:44.069Z,10.08
2022-10-21T05:03:44.054Z,10.08
2022-10-21T05:04:44.044Z,10.06
2022-10-21T05:05:44.031Z,10.08
2022-10-21T05:06:44.017Z,10.06
2022-10-21T05:07:44.010Z,10.02
2022-10-21T05:08:44.032Z,10.01
2022-10-21T05:09:43.982Z,10.01
2022-10-21T05:10:43.973Z,10.01
2022-10-21T05:11:43.961Z,10.01
2022-10-21T05:12:43.950Z,10.02
2022-10-21T05:13:43.960Z,10.01
2022-10-21T05:14:43.926Z,10.02
2022-10-21T05:15:43.914Z,10.01
2022-10-21T05:16:43.904Z,10.03
2022-10-21T05:17:43.903Z,10.05
2022-10-21T05:18:43.881Z,10.08
2022-10-21T05:19:43.879Z,10.08
2022-10-21T05:20:43.859Z,10.08
2022-10-21T05:21:43.855Z,10.09
2022-10-21T05:22:45.834Z,10.08
2022-10-21T05:23:43.828Z,10.06
2022-10-21T05:24:43.819Z,10.08
2022-10-21T05:25:43.801Z,10.08
2022-10-21T05:26:43.799Z,10.10
2022-10-21T05:27:43.779Z,10.14
2022-10-21T05:28:45.774Z,10.16
2022-10-21T05:29:43.791Z,10.16
2022-10-21T05:30:43.749Z,10.17
2022-10-21T05:31:43.741Z,10.18
2022-10-21T05:32:43.726Z,10.18
2022-10-21T05:33:43.715Z,10.20
2022-10-21T05:34:43.701Z,10.20
2022-10-21T05:35:43.692Z,10.18
2022-10-21T05:36:43.684Z,10.20
2022-10-21T05:37:43.667Z,10.21
2022-10-21T05:38:45.656Z,10.21
2022-10-21T05:39:43.655Z,10.21
2022-10-21T05:40:45.632Z,10.18
2022-10-21T05:41:47.005Z,10.18
2022-10-21T05:42:43.610Z,10.21
2022-10-21T05:43:43.606Z,10.23
2022-10-21T05:44:43.587Z,10.23
2022-10-21T05:45:43.602Z,10.24
2022-10-21T05:46:43.568Z,10.27
2022-10-21T05:47:43.554Z,10.24
2022-10-21T05:48:43.627Z,10.27
2022-10-21T05:49:43.530Z,10.26
2022-10-21T05:50:43.524Z,10.24
2022-10-21T05:51:45.522Z,10.24
2022-10-21T05:52:43.499Z,10.27
2022-10-21T05:53:45.491Z,10.30
2022-10-21T05:54:45.574Z,10.28
2022-10-21T05:55:45.465Z,10.31
2022-10-21T05:56:43.454Z,10.34
2022-10-21T05:57:43.523Z,10.34
2022-10-21T05:58:45.436Z,10.34
2022-10-21T05:59:43.420Z,10.34
2022-10-21T06:00:45.535Z,10.31
2022-10-21T06:01:43.408Z,10.31
2022-10-21T06:02:43.387Z,10.28
2022-10-21T06:03:43.379Z,10.30
2022-10-21T06:04:43.399Z,10.30
2022-10-21T06:05:43.361Z,10.34
2022-10-21T06:06:43.359Z,10.35
2022-10-21T06:07:43.332Z,10.35
2022-10-21T06:08:43.391Z,10.39
2022-10-21T06:09:45.310Z,10.41
2022-10-21T06:10:43.303Z,10.41
2022-10-21T06:11:45.286Z,10.42
2022-10-21T06:12:43.281Z,10.42
2022-10-21T06:13:43.262Z,10.42
2022-10-21T06:14:43.256Z,10.42
2022-10-21T06:15:47.419Z,10.43
2022-10-21T06:16:43.254Z,10.43
2022-10-21T06:17:43.217Z,10.43
2022-10-21T06:18:43.206Z,10.43
2022-10-21T06:19:45.953Z,10.45
2022-10-21T06:20:43.183Z,10.43
2022-10-21T06:21:43.175Z,10.45
2022-10-21T06:22:43.163Z,10.45
2022-10-21T06:23:43.148Z,10.45
2022-10-21T06:24:43.143Z,10.46
2022-10-21T06:25:43.127Z,10.48
2022-10-21T06:26:43.117Z,10.53
2022-10-21T06:27:43.104Z,10.56
2022-10-21T06:28:43.092Z,10.53
2022-10-21T06:29:43.086Z,10.51
2022-10-21T06:30:43.080Z,10.48
2022-10-21T06:31:45.059Z,10.48
2022-10-21T06:32:43.071Z,10.51
2022-10-21T06:33:43.036Z,10.51
2022-10-21T06:34:43.029Z,10.54
2022-10-21T06:35:45.013Z,10.57
2022-10-21T06:36:43.006Z,10.56
2022-10-21T06:37:42.993Z,10.59
2022-10-21T06:38:43.029Z,10.57
2022-10-21T06:39:42.972Z,10.59
2022-10-21T06:40:42.964Z,10.59
2022-10-21T06:41:42.947Z,10.59
2022-10-21T06:42:42.935Z,10.57
2022-10-21T06:43:43.011Z,10.57
2022-10-21T06:44:42.914Z,10.57
2022-10-21T06:45:42.903Z,10.51
2022-10-21T06:46:42.891Z,10.53
2022-10-21T06:47:44.878Z,10.51
2022-10-21T06:48:42.893Z,10.57
2022-10-21T06:49:42.860Z,10.59
2022-10-21T06:50:42.857Z,10.60
2022-10-21T06:51:42.836Z,10.60
2022-10-21T06:52:42.823Z,10.61
2022-10-21T06:53:42.817Z,10.63
2022-10-21T06:54:42.801Z,10.63
2022-10-21T06:55:42.791Z,10.64
2022-10-21T06:56:42.782Z,10.67
2022-10-21T06:57:42.767Z,10.69
2022-10-21T06:58:42.757Z,10.67
2022-10-21T06:59:42.746Z,10.74
2022-10-21T07:00:42.737Z,10.72
2022-10-21T07:01:59.265Z,10.75
2022-10-21T07:02:42.715Z,10.79
2022-10-21T07:03:42.701Z,10.79
2022-10-21T07:04:42.716Z,10.79
2022-10-21T07:05:42.678Z,10.81
2022-10-21T07:06:42.668Z,10.82
2022-10-21T07:07:42.657Z,10.84
2022-10-21T07:08:54.060Z,10.89
2022-10-21T07:09:42.691Z,10.89
2022-10-21T07:10:42.625Z,10.85
2022-10-21T07:11:42.610Z,10.90
2022-10-21T07:12:42.598Z,10.92
2022-10-21T07:13:42.607Z,10.96
2022-10-21T07:14:42.580Z,10.99
2022-10-21T07:15:42.582Z,11.03
2022-10-21T07:16:42.554Z,11.04
2022-10-21T07:17:42.542Z,11.08
2022-10-21T07:18:42.723Z,11.08
2022-10-21T07:19:42.528Z,11.11
2022-10-21T07:20:42.533Z,11.14
2022-10-21T07:21:42.500Z,11.12
2022-10-21T07:22:42.485Z,11.15
2022-10-21T07:23:42.481Z,11.17
2022-10-21T07:24:42.470Z,11.17
2022-10-21T07:25:42.453Z,11.19
2022-10-21T07:26:42.443Z,11.18
2022-10-21T07:27:44.778Z,11.19
2022-10-21T07:28:42.423Z,11.19
2022-10-21T07:29:42.414Z,11.19
2022-10-21T07:30:42.397Z,11.19
2022-10-21T07:31:42.394Z,11.22
2022-10-21T07:32:42.374Z,11.25
2022-10-21T07:33:42.375Z,11.25
2022-10-21T07:34:42.361Z,11.25
2022-10-21T07:35:42.346Z,11.23
2022-10-21T07:36:42.355Z,11.25
2022-10-21T07:37:42.327Z,11.27
2022-10-21T07:38:42.307Z,11.28
2022-10-21T07:39:42.299Z,11.30
2022-10-21T07:40:42.284Z,11.30
2022-10-21T07:41:42.276Z,11.33
2022-10-21T07:42:42.268Z,11.36
2022-10-21T07:43:42.248Z,11.41
2022-10-21T07:44:42.244Z,11.43
2022-10-21T07:45:42.230Z,11.45
2022-10-21T07:46:42.223Z,11.49
2022-10-21T07:47:42.209Z,11.52
2022-10-21T07:48:42.192Z,11.52
2022-10-21T07:49:42.182Z,11.55
2022-10-21T07:50:42.171Z,11.55
2022-10-21T07:51:42.162Z,11.56
2022-10-21T07:52:48.358Z,11.58
2022-10-21T07:53:42.140Z,11.61
2022-10-21T07:54:42.125Z,11.66
2022-10-21T07:55:42.115Z,11.70
2022-10-21T07:56:42.102Z,11.74
2022-10-21T07:57:42.097Z,11.76
2022-10-21T07:58:42.088Z,11.79
2022-10-21T07:59:42.067Z,11.80
2022-10-21T08:00:42.274Z,11.82
2022-10-21T08:01:42.143Z,11.85
2022-10-21T08:02:42.033Z,11.88
2022-10-21T08:03:42.022Z,11.92
2022-10-21T08:04:42.013Z,11.96
2022-10-21T08:05:41.999Z,11.98
2022-10-21T08:06:41.990Z,12.04
2022-10-21T08:07:41.982Z,12.09
2022-10-21T08:08:42.047Z,12.13
2022-10-21T08:09:41.964Z,12.17
2022-10-21T08:10:41.997Z,12.20
2022-10-21T08:11:41.933Z,12.21
2022-10-21T08:12:41.923Z,12.24
2022-10-21T08:13:41.911Z,12.22
2022-10-21T08:14:41.897Z,12.20
2022-10-21T08:15:41.889Z,12.20
2022-10-21T08:16:41.879Z,12.21
2022-10-21T08:17:41.862Z,12.14
2022-10-21T08:18:41.867Z,12.14
2022-10-21T08:19:41.839Z,12.20
2022-10-21T08:20:41.833Z,12.20
2022-10-21T08:21:41.817Z,12.22
2022-10-21T08:22:41.883Z,12.25
2022-10-21T08:23:41.795Z,12.27
2022-10-21T08:24:42.466Z,12.25
2022-10-21T08:25:41.773Z,12.28
2022-10-21T08:26:41.761Z,12.28
2022-10-21T08:27:41.748Z,12.32
2022-10-21T08:28:41.742Z,12.35
2022-10-21T08:29:41.725Z,12.40
2022-10-21T08:30:41.723Z,12.52
2022-10-21T08:31:41.709Z,12.61
2022-10-21T08:32:41.814Z,12.68
2022-10-21T08:33:41.680Z,12.77
2022-10-21T08:34:41.673Z,12.87
2022-10-21T08:35:41.662Z,12.93
2022-10-21T08:36:41.649Z,13.05
2022-10-21T08:37:41.634Z,13.17
2022-10-21T08:38:41.631Z,13.29
2022-10-21T08:39:41.610Z,13.42
2022-10-21T08:40:41.627Z,13.45
2022-10-21T08:41:41.588Z,13.52
2022-10-21T08:42:41.640Z,13.57
2022-10-21T08:43:41.564Z,13.60
2022-10-21T08:44:41.555Z,13.62
2022-10-21T08:45:41.542Z,13.67
2022-10-21T08:46:41.531Z,13.64
2022-10-21T08:47:41.720Z,13.66
2022-10-21T08:48:41.509Z,13.70
2022-10-21T08:49:41.497Z,13.70
2022-10-21T08:50:41.484Z,13.70
2022-10-21T08:51:41.483Z,13.75
2022-10-21T08:52:41.462Z,13.84
2022-10-21T08:53:41.456Z,13.95
2022-10-21T08:54:41.440Z,14.09
2022-10-21T08:55:41.430Z,14.15
2022-10-21T08:56:41.452Z,14.09
2022-10-21T08:57:41.667Z,14.03
2022-10-21T08:58:41.398Z,14.15
2022-10-21T08:59:41.383Z,14.23
2022-10-21T09:00:41.372Z,14.21
2022-10-21T09:01:41.363Z,14.15
2022-10-21T09:02:41.441Z,14.11
2022-10-21T09:03:41.340Z,14.19
2022-10-21T09:04:41.334Z,14.30
2022-10-21T09:05:41.318Z,14.40
2022-10-21T09:06:41.310Z,14.49
2022-10-21T09:07:41.691Z,14.55
2022-10-21T09:08:41.412Z,14.55
2022-10-21T09:09:41.277Z,14.61
2022-10-21T09:10:41.263Z,14.67
2022-10-21T09:11:41.256Z,14.67
2022-10-21T09:12:41.265Z,14.64
2022-10-21T09:13:41.231Z,14.70
2022-10-21T09:14:41.224Z,14.77
2022-10-21T09:15:41.209Z,14.84
2022-10-21T09:16:41.206Z,14.89
2022-10-21T09:17:41.511Z,14.85
2022-10-21T09:18:41.175Z,14.76
2022-10-21T09:19:41.167Z,14.78
2022-10-21T09:20:41.155Z,14.86
2022-10-21T09:21:41.141Z,14.92
2022-10-21T09:22:41.133Z,14.98
2022-10-21T09:23:41.122Z,15.06
2022-10-21T09:24:41.111Z,15.13
2022-10-21T09:25:41.095Z,15.25
2022-10-21T09:26:41.094Z,15.37
2022-10-21T09:27:54.935Z,15.62
2022-10-21T09:28:41.085Z,16.21
2022-10-21T09:29:41.054Z,16.81
2022-10-21T09:30:41.043Z,17.41
2022-10-21T09:31:41.036Z,17.92
2022-10-21T09:32:41.019Z,18.27
2022-10-21T09:33:41.006Z,18.79
2022-10-21T09:34:40.994Z,19.11
2022-10-21T09:35:40.982Z,19.38
2022-10-21T09:36:40.977Z,19.69
2022-10-21T09:37:41.664Z,19.89
2022-10-21T09:38:40.950Z,19.81
2022-10-21T09:39:40.945Z,19.81
2022-10-21T09:40:40.927Z,19.86
2022-10-21T09:41:40.920Z,18.97
2022-10-21T09:42:47.392Z,18.39
2022-10-21T09:43:40.895Z,18.25
2022-10-21T09:44:40.917Z,18.33
2022-10-21T09:45:40.871Z,18.38
2022-10-21T09:46:40.861Z,18.46
2022-10-21T09:47:40.846Z,18.66
2022-10-21T09:48:53.966Z,18.75
2022-10-21T09:50:05.835Z,18.83
2022-10-21T09:50:40.845Z,18.94
2022-10-21T09:51:40.802Z,19.01
2022-10-21T09:52:41.192Z,19.18
2022-10-21T09:53:43.577Z,19.15
2022-10-21T09:54:40.771Z,18.91
2022-10-21T09:55:40.757Z,18.88
2022-10-21T09:56:40.748Z,18.78
2022-10-21T09:57:40.758Z,18.49
2022-10-21T09:58:40.724Z,18.34
2022-10-21T09:59:40.831Z,18.39
2022-10-21T10:00:40.725Z,18.43
2022-10-21T10:01:40.711Z,18.33
2022-10-21T10:02:40.938Z,18.26
2022-10-21T10:03:40.679Z,18.26
2022-10-21T10:04:40.655Z,18.39
2022-10-21T10:05:40.644Z,19.08
2022-10-21T10:06:40.643Z,19.51
2022-10-21T10:07:40.622Z,19.48
2022-10-21T10:08:40.703Z,19.49
2022-10-21T10:09:40.609Z,19.52
2022-10-21T10:10:40.591Z,19.63
2022-10-21T10:11:40.584Z,19.55
2022-10-21T10:12:40.950Z,19.25
2022-10-21T10:13:40.561Z,19.07
2022-10-21T10:14:40.543Z,18.96
2022-10-21T10:15:40.538Z,19.01
2022-10-21T10:16:40.552Z,18.97
2022-10-21T10:17:40.508Z,19.04
2022-10-21T10:18:40.496Z,19.37
2022-10-21T10:19:40.486Z,19.79
2022-10-21T10:20:40.532Z,20.12
2022-10-21T10:21:40.462Z,20.44
2022-10-21T10:22:40.953Z,20.42
2022-10-21T10:23:40.439Z,20.70
2022-10-21T10:24:40.430Z,21.09
2022-10-21T10:25:40.422Z,21.53
2022-10-21T10:26:40.406Z,21.35
2022-10-21T10:27:40.398Z,20.76
2022-10-21T10:29:40.377Z,20.09
2022-10-21T10:30:40.359Z,19.70
2022-10-21T10:31:40.351Z,19.11
2022-10-21T10:32:40.852Z,18.97
2022-10-21T10:33:40.332Z,18.79
2022-10-21T10:34:40.316Z,18.45
2022-10-21T10:35:40.303Z,18.20
2022-10-21T10:36:40.291Z,18.01
2022-10-21T10:37:40.338Z,17.89
2022-10-21T10:38:40.271Z,17.86
2022-10-21T10:39:40.260Z,17.65
2022-10-21T10:40:40.247Z,17.38
2022-10-21T10:41:40.234Z,17.41
2022-10-21T10:42:40.484Z,17.32
2022-10-21T10:43:40.213Z,17.32
2022-10-21T10:44:40.204Z,17.28
2022-10-21T10:45:40.190Z,17.35
2022-10-21T10:46:40.245Z,17.50
2022-10-21T10:47:40.463Z,17.85
2022-10-21T10:48:40.383Z,18.08
2022-10-21T10:49:40.172Z,18.16
2022-10-21T10:50:40.133Z,18.11
2022-10-21T10:51:40.122Z,18.08
2022-10-21T10:52:40.119Z,18.20
2022-10-21T10:53:40.100Z,18.38
2022-10-21T10:54:40.095Z,18.30
2022-10-21T10:55:40.142Z,18.52
2022-10-21T10:56:40.072Z,18.82
2022-10-21T10:57:46.113Z,18.86
2022-10-21T10:58:40.042Z,18.61
2022-10-21T10:59:40.034Z,18.74
2022-10-21T11:00:40.147Z,18.68
2022-10-21T11:01:40.054Z,18.54
2022-10-21T11:02:40.017Z,18.42
2022-10-21T11:03:41.393Z,18.49
2022-10-21T11:04:40.096Z,18.56
2022-10-21T11:05:39.962Z,18.58
2022-10-21T11:06:39.958Z,18.78
2022-10-21T11:07:40.260Z,19.14
2022-10-21T11:08:39.976Z,19.40
2022-10-21T11:09:39.925Z,19.66
2022-10-21T11:10:39.905Z,19.89
2022-10-21T11:11:39.900Z,20.32
2022-10-21T11:12:39.884Z,20.66
2022-10-21T11:13:42.117Z,20.91
2022-10-21T11:14:39.866Z,21.20
2022-10-21T11:15:39.854Z,21.51
2022-10-21T11:16:50.405Z,21.74
2022-10-21T11:17:40.214Z,21.93
2022-10-21T11:18:39.822Z,22.06
2022-10-21T11:19:39.807Z,22.14
2022-10-21T11:20:39.913Z,21.97
2022-10-21T11:21:39.784Z,21.29
2022-10-21T11:22:39.772Z,20.74
2022-10-21T11:23:39.763Z,20.57
2022-10-21T11:24:39.758Z,20.54
2022-10-21T11:25:39.739Z,20.63
2022-10-21T11:26:39.733Z,20.66
2022-10-21T11:27:40.091Z,20.73
2022-10-21T11:28:39.705Z,20.72
2022-10-21T11:29:39.702Z,20.66
2022-10-21T11:30:39.685Z,20.60
2022-10-21T11:31:48.818Z,20.62
2022-10-21T11:32:39.666Z,20.67
2022-10-21T11:33:39.649Z,20.74
2022-10-21T11:34:39.642Z,20.81
2022-10-21T11:35:39.627Z,20.84
2022-10-21T11:36:39.732Z,20.84
2022-10-21T11:37:39.900Z,20.89
2022-10-21T11:38:39.598Z,21.15
2022-10-21T11:39:39.582Z,21.40
2022-10-21T11:40:39.576Z,21.53
2022-10-21T11:41:39.559Z,21.40
2022-10-21T11:42:39.939Z,21.44
2022-10-21T11:43:39.536Z,21.43
2022-10-21T11:44:39.526Z,21.20
2022-10-21T11:45:39.520Z,21.04
2022-10-21T11:46:39.501Z,20.87
2022-10-21T11:47:39.497Z,20.81
2022-10-21T11:48:39.478Z,20.64
2022-10-21T11:49:39.466Z,20.39
2022-10-21T11:50:39.460Z,20.29
2022-10-21T11:51:39.445Z,20.25
2022-10-21T11:52:39.733Z,19.87
2022-10-21T11:53:39.424Z,19.59
2022-10-21T11:54:49.072Z,19.51
2022-10-21T11:55:39.401Z,19.53
2022-10-21T11:56:39.388Z,19.51
2022-10-21T11:57:39.389Z,19.33
2022-10-21T11:58:39.375Z,19.38
2022-10-21T11:59:39.354Z,19.62
2022-10-21T12:00:39.345Z,19.69
2022-10-21T12:01:39.333Z,19.75
2022-10-21T12:02:39.706Z,19.78
2022-10-21T12:03:39.309Z,19.52
2022-10-21T12:04:39.306Z,19.15
2022-10-21T12:05:39.285Z,18.83
2022-10-21T12:06:39.276Z,18.74
2022-10-21T12:07:39.274Z,18.76
2022-10-21T12:08:43.092Z,18.46
2022-10-21T12:09:39.241Z,18.39
2022-10-21T12:10:39.239Z,18.39
2022-10-21T12:11:39.220Z,18.27
2022-10-21T12:12:39.538Z,18.25
2022-10-21T12:13:39.223Z,18.26
2022-10-21T12:14:39.183Z,18.20
2022-10-21T12:15:39.175Z,18.20
2022-10-21T12:16:39.171Z,18.30
2022-10-21T12:17:39.178Z,18.48
2022-10-21T12:18:39.146Z,18.43
2022-10-21T12:19:39.130Z,18.48
2022-10-21T12:20:39.119Z,18.63
2022-10-21T12:21:39.109Z,18.66
2022-10-21T12:22:39.488Z,18.78
2022-10-21T12:23:39.082Z,18.71
2022-10-21T12:24:39.192Z,18.76
2022-10-21T12:25:39.067Z,18.79
2022-10-21T12:27:39.371Z,18.89
2022-10-21T12:28:39.029Z,18.81
2022-10-21T12:29:39.016Z,18.61
2022-10-21T12:30:39.004Z,18.66
2022-10-21T12:31:38.997Z,18.68
2022-10-21T12:32:38.983Z,18.63
2022-10-21T12:33:38.972Z,18.58
2022-10-21T12:34:38.960Z,18.57
2022-10-21T12:35:39.223Z,18.46
2022-10-21T12:36:38.939Z,18.52
2022-10-21T12:37:39.061Z,18.45
2022-10-21T12:38:38.914Z,18.42
2022-10-21T12:39:38.913Z,18.43
2022-10-21T12:40:39.015Z,18.51
2022-10-21T12:41:38.882Z,18.64
2022-10-21T12:42:38.871Z,18.76
2022-10-21T12:43:38.867Z,18.82
2022-10-21T12:44:38.936Z,18.64
2022-10-21T12:45:38.842Z,18.51
2022-10-21T12:46:40.221Z,18.45
2022-10-21T12:47:39.111Z,18.34
2022-10-21T12:48:38.801Z,18.27
2022-10-21T12:49:38.792Z,18.22
2022-10-21T12:50:38.783Z,18.19
2022-10-21T12:51:38.768Z,18.08
2022-10-21T12:52:38.766Z,18.01
2022-10-21T12:53:38.775Z,18.00
2022-10-21T12:54:38.736Z,17.98
2022-10-21T12:55:38.733Z,18.01
2022-10-21T12:56:38.735Z,17.95
2022-10-21T12:57:38.956Z,17.96
2022-10-21T12:58:38.696Z,17.96
2022-10-21T12:59:38.680Z,17.95
2022-10-21T13:00:38.767Z,17.92
2022-10-21T13:01:38.664Z,17.89
2022-10-21T13:02:38.980Z,17.92